Time;durP1;ratioP1;P1;durP2;ratioP2;P2;SDS_P1;SDS_P2;PMS_P1;PMS_P2;Temp;Humidity;BMP_temperature;BMP_pressure;BME280_temperature;BME280_humidity;BME280_pressure;Samples;Min_cycle;Max_cycle;Signal;HPM_P1;HPM_P2
2023/04/04 00:01:07;;;;;;;;;;;;;;;1.49;54.65;100638.03;5568630;32;34826;-65
2023/04/04 00:04:10;;;;;;;;;;;;;;;1.55;54.58;100639.41;5568769;32;34033;-64
2023/04/04 00:07:12;;;;;;;;;;;;;;;1.65;54.10;100643.87;5568675;32;32824;-64
2023/04/04 00:10:16;;;;;;;;;;;;;;;1.67;54.31;100642.00;5568534;32;34263;-65
2023/04/04 00:13:18;;;;;;;;;;;;;;;1.64;53.88;100650.09;5568529;32;34154;-64
2023/04/04 00:16:22;;;;;;;;;;;;;;;1.77;53.17;100652.69;5568671;32;34190;-64
2023/04/04 00:19:24;;;;;;;;;;;;;;;1.79;53.74;100652.59;5568505;32;33943;-65
2023/04/04 00:22:27;;;;;;;;;;;;;;;1.80;54.03;100654.25;5568789;32;34075;-64
2023/04/04 00:25:29;;;;;;;;;;;;;;;1.68;53.43;100655.94;5568517;32;34150;-64
2023/04/04 00:28:32;;;;;;;;;;;;;;;1.63;53.67;100666.69;5568857;32;34567;-64
2023/04/04 00:31:34;;;;;;;;;;;;;;;1.61;53.71;100662.50;5567532;32;34104;-64
2023/04/04 00:34:37;;;;;;;;;;;;;;;1.67;53.85;100667.31;5567592;32;34293;-64
2023/04/04 00:37:40;;;;;;;;;;;;;;;1.61;52.92;100665.97;5568566;32;34274;-64
2023/04/04 00:40:49;;;;;;;;;;;;;;;1.64;53.25;100665.78;5567498;32;34635;-64
2023/04/04 00:43:53;;;;;;;;;;;;;;;1.60;52.75;100666.91;5568292;32;34807;-65
2023/04/04 00:46:56;;;;;;;;;;;;;;;1.56;53.06;100662.81;5568154;32;34895;-64
2023/04/04 00:49:59;;;;;;;;;;;;;;;1.56;53.21;100665.44;5568683;32;34162;-65
2023/04/04 00:53:03;;;;;;;;;;;;;;;1.54;53.96;100664.72;5568232;32;34726;-64
2023/04/04 00:56:08;;;;;;;;;;;;;;;1.50;54.16;100659.78;5568113;32;34135;-64
2023/04/04 00:59:10;;;;;;;;;;;;;;;1.51;54.90;100662.28;5568216;32;33929;-64
2023/04/04 01:02:13;;;;;;;;;;;;;;;1.43;55.99;100646.28;5567521;32;34267;-64
2023/04/04 01:05:16;;;;;;;;;;;;;;;1.34;56.62;100640.84;5568130;32;34119;-64
2023/04/04 01:08:20;;;;;;;;;;;;;;;1.12;57.36;100637.03;5567291;32;35238;-64
2023/04/04 01:11:23;;;;;;;;;;;;;;;1.22;56.89;100630.25;5568047;32;34755;-64
2023/04/04 01:14:26;;;;;;;;;;;;;;;1.21;56.70;100633.00;5568378;32;34863;-64
2023/04/04 01:17:28;;;;;;;;;;;;;;;1.20;56.52;100616.47;5568055;32;34215;-63
2023/04/04 01:20:32;;;;;;;;;;;;;;;1.22;56.66;100618.97;5568117;32;34276;-64
2023/04/04 01:23:43;;;;;;;;;;;;;;;1.19;57.48;100613.97;5567884;32;34891;-64
2023/04/04 01:26:47;;;;;;;;;;;;;;;1.24;55.76;100612.72;5568006;32;34007;-64
2023/04/04 01:29:49;;;;;;;;;;;;;;;1.15;56.41;100608.09;5567935;32;33896;-63
2023/04/04 01:32:58;;;;;;;;;;;;;;;1.14;56.00;100595.12;5566825;32;33408;-64
2023/04/04 01:36:15;;;;;;;;;;;;;;;1.19;55.31;100601.72;5567928;32;34205;-64
2023/04/04 01:39:26;;;;;;;;;;;;;;;1.23;55.93;100586.69;5567824;32;34745;-63
2023/04/04 01:42:29;;;;;;;;;;;;;;;1.27;55.05;100580.28;5566685;31;34662;-65
2023/04/04 01:45:32;;;;;;;;;;;;;;;1.33;54.46;100577.28;5567800;32;34035;-64
2023/04/04 01:48:36;;;;;;;;;;;;;;;1.30;55.01;100574.88;5567762;32;34699;-64
2023/04/04 01:51:40;;;;;;;;;;;;;;;1.26;55.48;100576.84;5568105;32;34182;-64
2023/04/04 01:54:42;;;;;;;;;;;;;;;1.34;55.17;100570.28;5568000;32;34229;-64
2023/04/04 01:57:45;;;;;;;;;;;;;;;1.31;55.10;100563.47;5567982;32;35176;-64
2023/04/04 02:00:48;;;;;;;;;;;;;;;1.34;55.19;100558.03;5566927;32;34199;-64
2023/04/04 02:03:51;;;;;;;;;;;;;;;1.41;55.50;100545.37;5567531;32;34759;-65
2023/04/04 02:06:55;;;;;;;;;;;;;;;1.31;55.59;100548.63;5567666;32;33959;-64
2023/04/04 02:09:58;;;;;;;;;;;;;;;1.29;55.78;100547.06;5567083;32;34359;-65
2023/04/04 02:13:01;;;;;;;;;;;;;;;1.24;56.39;100542.16;5567444;32;34273;-63
2023/04/04 02:16:04;;;;;;;;;;;;;;;1.23;56.68;100534.41;5567434;32;34511;-64
2023/04/04 02:19:06;;;;;;;;;;;;;;;1.20;56.98;100530.25;5567436;32;34035;-66
2023/04/04 02:22:10;;;;;;;;;;;;;;;1.23;57.52;100530.03;5567676;32;34305;-64
2023/04/04 02:25:12;;;;;;;;;;;;;;;1.22;57.72;100522.28;5567396;32;34581;-63
2023/04/04 02:28:17;;;;;;;;;;;;;;;1.15;58.63;100521.87;5567359;32;34016;-66
2023/04/04 02:31:22;;;;;;;;;;;;;;;1.16;58.94;100518.31;5567305;32;34085;-64
2023/04/04 02:34:25;;;;;;;;;;;;;;;1.11;58.67;100509.13;5567218;32;34902;-64
2023/04/04 02:37:28;;;;;;;;;;;;;;;1.03;59.32;100507.03;5567249;32;34200;-63
2023/04/04 02:40:30;;;;;;;;;;;;;;;1.00;59.91;100501.19;5567059;32;34711;-64
2023/04/04 02:43:33;;;;;;;;;;;;;;;1.12;58.81;100498.56;5566942;32;33707;-64
2023/04/04 02:46:39;;;;;;;;;;;;;;;1.04;59.64;100500.88;5566977;32;34693;-65
2023/04/04 02:49:42;;;;;;;;;;;;;;;1.03;59.37;100506.19;5566960;32;34876;-63
2023/04/04 02:52:45;;;;;;;;;;;;;;;1.11;58.49;100511.75;5566868;32;34110;-64
2023/04/04 02:55:48;;;;;;;;;;;;;;;1.11;58.97;100509.13;5566813;32;34296;-64
2023/04/04 02:58:51;;;;;;;;;;;;;;;1.04;59.74;100510.47;5567145;32;34441;-65
2023/04/04 03:01:54;;;;;;;;;;;;;;;0.96;59.91;100513.62;5567064;32;34571;-64
2023/04/04 03:04:56;;;;;;;;;;;;;;;0.95;59.75;100509.31;5566647;32;34815;-65
2023/04/04 03:07:59;;;;;;;;;;;;;;;0.98;59.97;100522.16;5565645;32;33906;-64
2023/04/04 03:11:02;;;;;;;;;;;;;;;0.99;60.31;100513.41;5567768;32;34828;-65
2023/04/04 03:14:05;;;;;;;;;;;;;;;0.97;59.65;100519.69;5569175;32;34179;-65
2023/04/04 03:17:09;;;;;;;;;;;;;;;0.97;59.75;100512.66;5569402;32;34785;-65
2023/04/04 03:20:12;;;;;;;;;;;;;;;1.08;58.93;100518.00;5569654;31;34895;-65
2023/04/04 03:23:15;;;;;;;;;;;;;;;1.07;59.18;100528.53;5587234;31;34870;-64
2023/04/04 03:26:18;;;;;;;;;;;;;;;0.96;60.37;100521.47;5576972;31;34370;-63
2023/04/04 03:29:21;;;;;;;;;;;;;;;0.95;60.61;100521.56;5569292;32;34789;-65
2023/04/04 03:32:24;;;;;;;;;;;;;;;0.79;60.56;100526.94;5585433;31;34162;-65
2023/04/04 03:35:27;;;;;;;;;;;;;;;0.72;61.13;100521.31;5573259;31;34615;-65
2023/04/04 03:38:29;;;;;;;;;;;;;;;0.73;60.98;100528.19;5576732;31;34833;-65
2023/04/04 03:41:32;;;;;;;;;;;;;;;0.68;61.08;100529.44;5568963;32;34552;-69
2023/04/04 03:44:36;;;;;;;;;;;;;;;0.66;61.78;100532.16;5583371;31;34253;-65
2023/04/04 03:47:39;;;;;;;;;;;;;;;0.57;62.24;100537.16;5583217;31;34901;-65
2023/04/04 03:50:41;;;;;;;;;;;;;;;0.62;62.11;100543.75;5568780;32;34714;-65
2023/04/04 03:53:44;;;;;;;;;;;;;;;0.48;62.81;100540.38;5568788;32;34578;-65
2023/04/04 03:56:47;;;;;;;;;;;;;;;0.43;62.19;100538.91;5568559;32;34762;-65
2023/04/04 03:59:49;;;;;;;;;;;;;;;0.46;62.40;100550.06;5568828;32;34032;-65
2023/04/04 04:02:53;;;;;;;;;;;;;;;0.58;61.75;100544.88;5568747;32;34067;-66
2023/04/04 04:05:56;;;;;;;;;;;;;;;0.45;62.40;100536.16;5577447;31;34740;-65
2023/04/04 04:08:58;;;;;;;;;;;;;;;0.44;61.76;100535.31;5568565;32;34281;-66
2023/04/04 04:12:02;;;;;;;;;;;;;;;0.51;62.83;100527.94;5568661;32;34895;-66
2023/04/04 04:15:04;;;;;;;;;;;;;;;0.56;61.82;100528.47;5568596;32;34854;-65
2023/04/04 04:18:08;;;;;;;;;;;;;;;0.53;61.66;100528.69;5569323;31;34180;-66
2023/04/04 04:21:10;;;;;;;;;;;;;;;0.48;61.89;100522.94;5571329;31;34001;-65
2023/04/04 04:24:15;;;;;;;;;;;;;;;0.55;62.11;100520.75;5587468;31;34162;-65
2023/04/04 04:27:17;;;;;;;;;;;;;;;0.53;64.09;100522.63;5588396;31;33854;-65
2023/04/04 04:30:20;;;;;;;;;;;;;;;0.53;63.53;100527.84;5587887;31;34912;-65
2023/04/04 04:33:29;;;;;;;;;;;;;;;0.55;63.59;100520.75;5572371;31;33779;-65
2023/04/04 04:36:32;;;;;;;;;;;;;;;0.42;63.77;100529.38;5568314;32;34622;-66
2023/04/04 04:39:35;;;;;;;;;;;;;;;0.43;65.83;100533.69;5569250;31;34249;-66
2023/04/04 04:42:42;;;;;;;;;;;;;;;0.34;63.80;100536.84;5567931;32;34265;-67
2023/04/04 04:45:45;;;;;;;;;;;;;;;0.27;66.36;100517.34;5568012;32;34610;-66
2023/04/04 04:48:48;;;;;;;;;;;;;;;0.30;66.87;100524.09;5568661;32;34720;-67
2023/04/04 04:51:52;;;;;;;;;;;;;;;0.35;65.60;100525.50;5568318;32;34292;-66
2023/04/04 04:54:55;;;;;;;;;;;;;;;0.28;66.12;100526.00;5571620;31;34498;-66
2023/04/04 04:57:57;;;;;;;;;;;;;;;0.37;66.64;100517.56;5585002;31;33724;-67
2023/04/04 05:01:00;;;;;;;;;;;;;;;0.39;66.10;100526.13;5570934;31;34138;-67
2023/04/04 05:04:06;;;;;;;;;;;;;;;0.35;66.59;100525.50;5571732;31;34228;-67
2023/04/04 05:07:11;;;;;;;;;;;;;;;0.40;66.34;100519.97;5568782;31;34313;-66
2023/04/04 05:10:14;;;;;;;;;;;;;;;0.38;66.23;100522.69;5570119;31;33510;-66
2023/04/04 05:13:18;;;;;;;;;;;;;;;0.35;66.72;100517.66;5570489;31;34154;-65
2023/04/04 05:16:20;;;;;;;;;;;;;;;0.34;66.25;100515.97;5572548;31;34758;-65
2023/04/04 05:19:24;;;;;;;;;;;;;;;0.44;66.77;100516.22;5579150;31;34142;-66
2023/04/04 05:22:27;;;;;;;;;;;;;;;0.39;67.38;100519.13;5574046;31;34320;-65
2023/04/04 05:25:30;;;;;;;;;;;;;;;0.39;69.35;100520.91;5587359;31;34166;-65
2023/04/04 05:28:33;;;;;;;;;;;;;;;0.35;68.44;100528.09;5573617;31;35041;-67
2023/04/04 05:31:36;;;;;;;;;;;;;;;0.45;67.49;100530.94;5568624;31;34123;-65
2023/04/04 05:34:40;;;;;;;;;;;;;;;0.43;66.57;100531.06;5565318;31;34133;-66
2023/04/04 05:37:44;;;;;;;;;;;;;;;0.37;67.37;100528.84;5572659;31;34246;-65
2023/04/04 05:40:46;;;;;;;;;;;;;;;0.45;67.23;100538.78;5569717;31;34761;-65
2023/04/04 05:43:50;;;;;;;;;;;;;;;0.51;68.21;100535.78;5573187;31;34695;-66
2023/04/04 05:46:55;;;;;;;;;;;;;;;0.63;67.05;100526.31;5586352;31;34159;-65
2023/04/04 05:49:59;;;;;;;;;;;;;;;0.59;67.40;100541.31;5566895;31;32911;-65
2023/04/04 05:53:03;;;;;;;;;;;;;;;0.57;66.97;100537.16;5566661;31;34301;-66
2023/04/04 05:56:06;;;;;;;;;;;;;;;0.64;66.11;100536.63;5561443;31;34199;-66
2023/04/04 05:59:08;;;;;;;;;;;;;;;0.72;66.92;100547.44;5563302;31;34185;-65
2023/04/04 06:02:13;;;;;;;;;;;;;;;0.87;64.96;100556.03;5571610;31;34197;-65
2023/04/04 06:05:16;;;;;;;;;;;;;;;1.00;63.09;100554.25;5567087;32;34530;-65
2023/04/04 06:08:19;;;;;;;;;;;;;;;1.09;63.36;100553.66;5567455;31;34085;-66
2023/04/04 06:11:22;;;;;;;;;;;;;;;1.27;62.37;100559.37;5566987;32;34091;-67
2023/04/04 06:14:25;;;;;;;;;;;;;;;1.25;63.63;100554.28;5567307;32;34751;-66
2023/04/04 06:17:27;;;;;;;;;;;;;;;1.39;62.83;100547.28;5566832;31;34095;-67
2023/04/04 06:20:31;;;;;;;;;;;;;;;1.60;60.60;100559.69;5566796;32;34744;-66
2023/04/04 06:23:36;;;;;;;;;;;;;;;1.76;58.93;100549.00;5570363;31;34731;-65
2023/04/04 06:26:40;;;;;;;;;;;;;;;1.99;55.65;100555.22;5565809;31;34898;-66
2023/04/04 06:29:42;;;;;;;;;;;;;;;2.28;55.09;100559.19;5576305;31;34095;-66
2023/04/04 06:32:46;;;;;;;;;;;;;;;2.51;53.81;100560.19;5577372;31;34193;-66
2023/04/04 06:35:50;;;;;;;;;;;;;;;2.76;54.16;100551.34;5582678;31;34825;-65
2023/04/04 06:38:54;;;;;;;;;;;;;;;3.08;50.80;100533.19;5567198;31;34478;-66
2023/04/04 06:41:56;;;;;;;;;;;;;;;3.26;50.06;100521.31;5570590;31;34169;-68
2023/04/04 06:44:59;;;;;;;;;;;;;;;3.22;50.18;100514.63;5578210;31;34170;-66
2023/04/04 06:48:02;;;;;;;;;;;;;;;3.50;48.98;100533.38;5568211;31;34688;-66
2023/04/04 06:51:08;;;;;;;;;;;;;;;3.42;48.53;100527.88;5567770;31;33911;-67
2023/04/04 06:54:11;;;;;;;;;;;;;;;3.34;49.46;100518.94;5567174;31;34248;-66
2023/04/04 06:57:14;;;;;;;;;;;;;;;3.56;49.01;100515.47;5566242;32;34694;-67
2023/04/04 07:00:16;;;;;;;;;;;;;;;3.12;49.73;100498.78;5569350;31;34736;-67
2023/04/04 07:03:20;;;;;;;;;;;;;;;3.28;49.58;100508.94;5571476;31;34359;-66
2023/04/04 07:06:23;;;;;;;;;;;;;;;3.28;49.85;100511.56;5576387;31;33943;-66
2023/04/04 07:09:27;;;;;;;;;;;;;;;3.48;49.06;100516.94;5564224;31;34668;-66
2023/04/04 07:12:32;;;;;;;;;;;;;;;3.64;49.15;100513.94;5555720;32;34423;-65
2023/04/04 07:15:34;;;;;;;;;;;;;;;3.67;49.11;100516.31;5566106;32;33905;-66
2023/04/04 07:18:37;;;;;;;;;;;;;;;3.78;48.73;100520.72;5577450;31;33961;-65
2023/04/04 07:21:39;;;;;;;;;;;;;;;3.49;49.00;100521.19;5568562;31;33889;-66
2023/04/04 07:24:42;;;;;;;;;;;;;;;3.36;49.03;100528.34;5565649;31;34205;-64
2023/04/04 07:27:44;;;;;;;;;;;;;;;3.44;49.14;100536.47;5567442;31;34685;-67
2023/04/04 07:30:47;;;;;;;;;;;;;;;3.49;48.87;100521.19;5565590;32;34306;-66
2023/04/04 07:33:52;;;;;;;;;;;;;;;3.60;48.33;100530.03;5565816;31;34279;-66
2023/04/04 07:36:55;;;;;;;;;;;;;;;3.69;49.20;100530.12;5565512;32;34595;-67
2023/04/04 07:39:57;;;;;;;;;;;;;;;3.96;48.25;100539.44;5565909;32;34421;-65
2023/04/04 07:43:00;;;;;;;;;;;;;;;3.91;47.40;100531.94;5553941;31;34064;-65
2023/04/04 07:46:02;;;;;;;;;;;;;;;4.47;47.09;100535.22;5570118;31;34004;-67
2023/04/04 07:49:06;;;;;;;;;;;;;;;5.02;44.99;100534.16;5565722;32;34251;-65
2023/04/04 07:52:09;;;;;;;;;;;;;;;6.05;43.70;100527.81;5565656;32;34858;-65
2023/04/04 07:55:12;;;;;;;;;;;;;;;7.29;40.73;100539.34;5565368;32;34566;-66
2023/04/04 07:58:17;;;;;;;;;;;;;;;6.37;41.69;100537.31;5578415;31;34853;-66
2023/04/04 08:01:20;;;;;;;;;;;;;;;5.27;44.04;100532.06;5588310;31;34359;-66
2023/04/04 08:04:22;;;;;;;;;;;;;;;5.54;44.12;100525.28;5588113;31;34050;-67
2023/04/04 08:07:25;;;;;;;;;;;;;;;6.46;42.35;100531.22;5587369;31;34027;-66
2023/04/04 08:10:31;;;;;;;;;;;;;;;5.15;43.79;100536.56;5573588;31;34589;-67
2023/04/04 08:13:33;;;;;;;;;;;;;;;5.52;43.20;100523.72;5588062;31;33929;-66
2023/04/04 08:16:37;;;;;;;;;;;;;;;4.62;45.06;100525.25;5588144;31;34395;-67
2023/04/04 08:19:39;;;;;;;;;;;;;;;4.79;45.06;100524.72;5588006;31;34148;-67
2023/04/04 08:22:42;;;;;;;;;;;;;;;5.36;43.79;100531.28;5587618;31;34487;-66
2023/04/04 08:25:45;;;;;;;;;;;;;;;5.83;44.01;100528.03;5572994;31;34178;-67
2023/04/04 08:28:48;;;;;;;;;;;;;;;6.50;41.78;100546.63;5560349;32;34628;-66
2023/04/04 08:31:52;;;;;;;;;;;;;;;6.28;41.00;100553.97;5568069;32;34215;-67
2023/04/04 08:34:55;;;;;;;;;;;;;;;6.16;42.16;100541.84;5573956;31;34249;-66
2023/04/04 08:37:58;;;;;;;;;;;;;;;5.99;40.96;100549.47;5590651;31;34128;-66
2023/04/04 08:41:00;;;;;;;;;;;;;;;5.98;41.28;100537.25;5587860;31;33863;-66
2023/04/04 08:44:04;;;;;;;;;;;;;;;6.25;41.43;100544.50;5587456;31;34598;-65
2023/04/04 08:47:08;;;;;;;;;;;;;;;6.38;41.01;100547.75;5587510;31;34348;-66
2023/04/04 08:50:11;;;;;;;;;;;;;;;6.03;41.45;100523.69;5587346;31;33948;-67
2023/04/04 08:53:14;;;;;;;;;;;;;;;6.89;40.95;100515.81;5573365;31;34613;-67
2023/04/04 08:56:17;;;;;;;;;;;;;;;7.96;38.42;100527.69;5587272;31;34123;-68
2023/04/04 08:59:20;;;;;;;;;;;;;;;7.10;39.51;100522.72;5587967;31;33907;-66
2023/04/04 09:02:26;;;;;;;;;;;;;;;6.80;40.20;100505.28;5587329;31;34081;-67
2023/04/04 09:05:29;;;;;;;;;;;;;;;6.48;40.26;100513.50;5586850;31;34943;-67
2023/04/04 09:08:33;;;;;;;;;;;;;;;6.35;41.07;100511.09;5587116;31;34333;-67
2023/04/04 09:11:37;;;;;;;;;;;;;;;6.57;40.73;100515.28;5586863;31;34748;-68
2023/04/04 09:14:40;;;;;;;;;;;;;;;5.57;42.25;100496.06;5579361;31;33798;-67
2023/04/04 09:17:43;;;;;;;;;;;;;;;6.09;41.94;100508.19;5570871;31;34761;-67
2023/04/04 09:20:46;;;;;;;;;;;;;;;6.27;41.77;100518.03;5580861;31;34863;-66
2023/04/04 09:23:59;;;;;;;;;;;;;;;5.84;41.66;100495.47;5568093;32;34854;-69
2023/04/04 09:27:02;;;;;;;;;;;;;;;6.59;40.84;100515.97;5567860;32;35258;-65
2023/04/04 09:30:05;;;;;;;;;;;;;;;6.03;41.31;100503.44;5567706;32;34155;-66
2023/04/04 09:33:09;;;;;;;;;;;;;;;6.58;40.32;100516.13;5567878;32;34147;-67
2023/04/04 09:36:12;;;;;;;;;;;;;;;6.09;41.42;100510.81;5567756;32;34684;-67
2023/04/04 09:39:15;;;;;;;;;;;;;;;6.12;41.23;100510.53;5567978;32;34315;-67
2023/04/04 09:42:18;;;;;;;;;;;;;;;6.40;41.10;100500.97;5567885;32;34798;-69
2023/04/04 09:45:25;;;;;;;;;;;;;;;6.33;41.37;100491.97;5569129;32;33874;-67
2023/04/04 09:48:36;;;;;;;;;;;;;;;6.55;40.42;100494.34;5570813;32;34953;-66
2023/04/04 09:51:46;;;;;;;;;;;;;;;6.66;40.17;100496.00;5543311;32;33047;-65
2023/04/04 09:54:57;;;;;;;;;;;;;;;6.23;40.81;100491.13;5567953;32;34571;-66
2023/04/04 09:58:10;;;;;;;;;;;;;;;6.10;40.58;100486.12;5574756;31;33988;-66
2023/04/04 10:01:12;;;;;;;;;;;;;;;6.73;40.81;100480.47;5569022;32;34796;-67
2023/04/04 10:04:17;;;;;;;;;;;;;;;7.52;39.85;100476.47;5567308;32;34822;-67
2023/04/04 10:07:20;;;;;;;;;;;;;;;6.55;40.38;100496.12;5567650;32;34812;-67
2023/04/04 10:10:30;;;;;;;;;;;;;;;7.01;40.35;100492.75;5567663;32;33914;-66
2023/04/04 10:13:34;;;;;;;;;;;;;;;7.54;38.71;100498.28;5567580;32;33797;-70
2023/04/04 10:16:43;;;;;;;;;;;;;;;7.49;39.23;100486.50;5566953;32;34619;-69
2023/04/04 10:19:46;;;;;;;;;;;;;;;7.63;40.77;100491.31;5566374;32;34306;-70
2023/04/04 10:22:50;;;;;;;;;;;;;;;7.78;38.91;100492.47;5566911;32;34203;-68
2023/04/04 10:25:53;;;;;;;;;;;;;;;8.24;37.33;100481.75;5566576;32;33808;-67
2023/04/04 10:28:56;;;;;;;;;;;;;;;7.77;37.54;100475.81;5567205;32;34622;-69
2023/04/04 10:32:03;;;;;;;;;;;;;;;7.19;38.26;100479.66;5567316;32;34161;-67
2023/04/04 10:35:09;;;;;;;;;;;;;;;7.42;38.17;100465.97;5566970;32;34276;-68
2023/04/04 10:38:12;;;;;;;;;;;;;;;7.24;38.06;100474.78;5566747;32;34936;-67
2023/04/04 10:41:16;;;;;;;;;;;;;;;7.73;38.00;100461.22;5566860;32;34038;-69
2023/04/04 10:44:30;;;;;;;;;;;;;;;7.04;39.64;100463.44;5567210;32;35001;-69
2023/04/04 10:47:33;;;;;;;;;;;;;;;8.15;37.94;100452.75;5567601;32;34295;-69
2023/04/04 10:50:38;;;;;;;;;;;;;;;8.59;37.11;100457.16;5566679;32;34801;-68
2023/04/04 10:53:41;;;;;;;;;;;;;;;8.25;36.69;100458.78;5566829;32;34659;-67
2023/04/04 10:56:44;;;;;;;;;;;;;;;8.59;36.71;100464.25;5566562;32;34850;-68
2023/04/04 11:00:12;;;;;;;;;;;;;;;8.16;36.88;100465.00;5566665;32;33956;-69
2023/04/04 11:03:15;;;;;;;;;;;;;;;8.95;35.96;100460.56;5565645;32;33752;-67
2023/04/04 11:06:17;;;;;;;;;;;;;;;9.19;34.90;100453.75;5565821;31;34176;-70
2023/04/04 11:09:38;;;;;;;;;;;;;;;10.92;33.31;100467.94;5565407;32;34073;-70
2023/04/04 11:12:44;;;;;;;;;;;;;;;11.67;31.96;100455.09;5566375;32;34787;-71
2023/04/04 11:15:55;;;;;;;;;;;;;;;12.95;29.64;100452.56;5566128;32;34845;-69
2023/04/04 11:18:58;;;;;;;;;;;;;;;10.06;32.75;100430.41;5566407;32;33989;-69
2023/04/04 11:22:01;;;;;;;;;;;;;;;9.96;32.88;100433.22;5565366;32;33752;-69
2023/04/04 11:25:23;;;;;;;;;;;;;;;9.55;33.21;100436.72;5565905;32;34519;-69
2023/04/04 11:28:32;;;;;;;;;;;;;;;10.38;32.49;100429.63;5565987;32;34070;-68
2023/04/04 11:31:38;;;;;;;;;;;;;;;10.63;31.49;100435.78;5566765;31;34113;-69
2023/04/04 11:34:42;;;;;;;;;;;;;;;11.64;30.92;100421.72;5570409;31;34376;-70
2023/04/04 11:38:05;;;;;;;;;;;;;;;12.26;30.51;100421.72;5571442;31;34206;-69
2023/04/04 11:41:09;;;;;;;;;;;;;;;13.35;28.55;100427.37;5560947;31;34271;-70
2023/04/04 11:44:12;;;;;;;;;;;;;;;11.72;31.77;100416.41;5573065;31;33826;-69
2023/04/04 11:47:17;;;;;;;;;;;;;;;12.05;30.18;100416.22;5579414;31;34028;-70
2023/04/04 11:50:25;;;;;;;;;;;;;;;11.59;30.67;100416.09;5588055;31;34609;-69
2023/04/04 11:53:29;;;;;;;;;;;;;;;12.09;29.45;100418.34;5557485;32;33940;-70
2023/04/04 11:56:34;;;;;;;;;;;;;;;12.44;31.04;100405.47;5574268;31;34806;-70
2023/04/04 11:59:41;;;;;;;;;;;;;;;13.91;28.33;100409.78;5580569;31;34595;-70
2023/04/04 12:02:44;;;;;;;;;;;;;;;12.52;29.29;100403.56;5568296;32;34211;-70
2023/04/04 12:05:48;;;;;;;;;;;;;;;12.94;29.33;100400.31;5567554;31;34161;-70
2023/04/04 12:08:50;;;;;;;;;;;;;;;12.58;29.44;100391.38;5573284;31;34220;-69
2023/04/04 12:11:53;;;;;;;;;;;;;;;12.71;29.64;100396.87;5568510;31;34667;-70
2023/04/04 12:14:56;;;;;;;;;;;;;;;15.04;26.81;100401.78;5568273;32;33860;-69
2023/04/04 12:18:19;;;;;;;;;;;;;;;13.15;28.86;100382.81;5568869;32;35200;-69
2023/04/04 12:21:23;;;;;;;;;;;;;;;11.86;30.54;100374.94;5568191;32;34424;-70
2023/04/04 12:24:26;;;;;;;;;;;;;;;13.65;28.03;100382.81;5567959;32;33999;-71
2023/04/04 12:27:29;;;;;;;;;;;;;;;12.78;28.41;100368.53;5567802;32;34031;-71
2023/04/04 12:30:32;;;;;;;;;;;;;;;11.80;30.64;100380.16;5567409;32;34014;-71
2023/04/04 12:33:35;;;;;;;;;;;;;;;11.89;30.31;100365.81;5567472;32;34741;-71
2023/04/04 12:36:39;;;;;;;;;;;;;;;13.71;28.13;100368.75;5568732;32;33996;-69
2023/04/04 12:39:47;;;;;;;;;;;;;;;13.65;28.07;100361.50;5568220;32;34220;-70
2023/04/04 12:42:50;;;;;;;;;;;;;;;13.21;28.92;100360.78;5567501;32;33943;-71
2023/04/04 12:45:53;;;;;;;;;;;;;;;15.01;26.39;100363.91;5566701;31;34631;-71
2023/04/04 12:48:56;;;;;;;;;;;;;;;14.10;28.17;100365.66;5570176;31;34144;-70
2023/04/04 12:52:03;;;;;;;;;;;;;;;11.91;29.09;100345.19;5563357;32;34177;-70
2023/04/04 12:55:09;;;;;;;;;;;;;;;11.45;29.84;100360.22;5567914;32;34232;-71
2023/04/04 12:58:11;;;;;;;;;;;;;;;13.23;28.45;100348.06;5567913;32;33938;-70
2023/04/04 13:01:16;;;;;;;;;;;;;;;14.00;27.50;100346.47;5568287;32;34187;-69
2023/04/04 13:04:18;;;;;;;;;;;;;;;13.04;27.80;100352.94;5569605;31;34712;-68
2023/04/04 13:07:26;;;;;;;;;;;;;;;13.46;27.35;100341.59;5567023;31;34786;-69
2023/04/04 13:10:29;;;;;;;;;;;;;;;11.92;30.26;100336.19;5567983;32;34137;-69
2023/04/04 13:13:36;;;;;;;;;;;;;;;10.81;32.07;100348.84;5568607;31;34384;-71
2023/04/04 13:16:39;;;;;;;;;;;;;;;10.97;31.80;100340.84;5584930;31;35574;-71
2023/04/04 13:19:42;;;;;;;;;;;;;;;10.60;32.18;100340.62;5587297;31;34224;-69
2023/04/04 13:22:44;;;;;;;;;;;;;;;10.27;32.61;100340.62;5587199;31;33888;-69
2023/04/04 13:25:47;;;;;;;;;;;;;;;10.73;31.78;100340.91;5583306;31;33993;-69
2023/04/04 13:28:49;;;;;;;;;;;;;;;10.88;31.26;100333.91;5571580;31;34556;-70
2023/04/04 13:31:52;;;;;;;;;;;;;;;10.78;31.78;100336.75;5577948;31;34428;-71
2023/04/04 13:34:55;;;;;;;;;;;;;;;12.41;30.15;100331.31;5578988;31;34673;-71
2023/04/04 13:37:57;;;;;;;;;;;;;;;12.62;29.38;100334.09;5572465;31;33511;-69
2023/04/04 13:41:01;;;;;;;;;;;;;;;10.04;31.54;100329.84;5567243;31;33897;-69
2023/04/04 13:44:04;;;;;;;;;;;;;;;10.33;31.11;100324.06;5560021;31;33847;-71
2023/04/04 13:47:06;;;;;;;;;;;;;;;11.60;30.64;100326.59;5576647;31;33984;-71
2023/04/04 13:50:09;;;;;;;;;;;;;;;11.03;30.50;100323.41;5571535;31;34186;-70
2023/04/04 13:53:12;;;;;;;;;;;;;;;12.40;30.07;100324.31;5572931;31;34698;-72
2023/04/04 13:56:15;;;;;;;;;;;;;;;11.92;29.17;100315.75;5577185;31;33974;-69
2023/04/04 13:59:20;;;;;;;;;;;;;;;10.48;31.62;100328.69;5569945;31;34248;-69
2023/04/04 14:02:23;;;;;;;;;;;;;;;10.51;31.71;100321.22;5570834;31;34289;-70
2023/04/04 14:05:26;;;;;;;;;;;;;;;10.74;31.27;100330.12;5581944;31;34236;-69
2023/04/04 14:08:29;;;;;;;;;;;;;;;9.85;32.24;100324.03;5585305;31;34630;-68
2023/04/04 14:11:32;;;;;;;;;;;;;;;10.26;31.99;100320.41;5586724;31;34245;-68
2023/04/04 14:14:35;;;;;;;;;;;;;;;10.81;31.36;100323.12;5581088;31;33699;-69
2023/04/04 14:17:39;;;;;;;;;;;;;;;12.17;30.49;100324.38;5577963;31;34165;-69
2023/04/04 14:20:42;;;;;;;;;;;;;;;12.28;29.79;100320.47;5580229;31;34934;-70
2023/04/04 14:23:45;;;;;;;;;;;;;;;12.03;30.11;100311.87;5577953;31;34236;-70
2023/04/04 14:26:47;;;;;;;;;;;;;;;12.12;29.71;100337.38;5576647;31;34200;-70
2023/04/04 14:29:50;;;;;;;;;;;;;;;10.57;30.76;100328.50;5573870;31;33979;-69
2023/04/04 14:32:52;;;;;;;;;;;;;;;10.04;31.23;100323.72;5586255;31;34621;-70
2023/04/04 14:35:55;;;;;;;;;;;;;;;10.85;31.81;100327.09;5563425;31;34528;-70
2023/04/04 14:38:58;;;;;;;;;;;;;;;10.59;32.30;100331.00;5575231;31;34897;-71
2023/04/04 14:42:01;;;;;;;;;;;;;;;10.85;32.53;100324.44;5586370;31;34241;-69
2023/04/04 14:45:06;;;;;;;;;;;;;;;10.52;32.45;100328.19;5586279;31;34477;-69
2023/04/04 14:48:09;;;;;;;;;;;;;;;9.90;32.87;100333.16;5569258;31;34074;-69
2023/04/04 14:51:12;;;;;;;;;;;;;;;9.79;32.83;100333.47;5559019;32;34259;-70
2023/04/04 14:54:15;;;;;;;;;;;;;;;9.23;33.19;100336.81;5572555;31;34706;-69
2023/04/04 14:57:17;;;;;;;;;;;;;;;9.29;34.00;100324.75;5571291;31;34465;-72
2023/04/04 15:00:22;;;;;;;;;;;;;;;9.40;33.25;100333.22;5568850;31;34238;-69
2023/04/04 15:03:25;;;;;;;;;;;;;;;9.12;33.67;100331.81;5567920;31;34264;-70
2023/04/04 15:06:34;;;;;;;;;;;;;;;9.27;34.12;100334.69;5580040;31;33956;-70
2023/04/04 15:09:37;;;;;;;;;;;;;;;9.45;34.55;100335.37;5582768;31;34237;-70
2023/04/04 15:12:40;;;;;;;;;;;;;;;9.00;34.90;100333.09;5582492;31;34854;-70
2023/04/04 15:15:43;;;;;;;;;;;;;;;8.85;35.27;100332.84;5569312;31;34527;-69
2023/04/04 15:18:45;;;;;;;;;;;;;;;8.86;35.20;100331.84;5568297;32;34213;-69
2023/04/04 15:21:48;;;;;;;;;;;;;;;8.99;35.21;100334.91;5554986;31;34387;-71
2023/04/04 15:24:51;;;;;;;;;;;;;;;8.93;35.11;100340.81;5568643;31;34850;-69
2023/04/04 15:27:53;;;;;;;;;;;;;;;8.44;35.37;100342.34;5573337;31;34233;-70
2023/04/04 15:30:59;;;;;;;;;;;;;;;8.57;35.16;100339.28;5588168;31;34639;-70
2023/04/04 15:34:01;;;;;;;;;;;;;;;8.68;35.55;100331.09;5587229;31;33875;-69
2023/04/04 15:37:04;;;;;;;;;;;;;;;8.49;35.96;100345.34;5581747;31;34674;-68
2023/04/04 15:40:07;;;;;;;;;;;;;;;8.17;36.34;100350.38;5555039;32;34397;-69
2023/04/04 15:43:12;;;;;;;;;;;;;;;8.17;36.30;100345.94;5569113;31;34333;-70
2023/04/04 15:46:15;;;;;;;;;;;;;;;8.35;36.52;100353.03;5568154;32;34198;-69
2023/04/04 15:49:17;;;;;;;;;;;;;;;8.05;36.22;100347.12;5568064;32;34242;-69
2023/04/04 15:52:20;;;;;;;;;;;;;;;7.91;37.05;100344.19;5568180;32;34223;-68
2023/04/04 15:55:22;;;;;;;;;;;;;;;7.77;36.75;100359.59;5568087;32;34548;-69